sensor_id;sensor_type;location;lat;lon;timestamp;pressure;altitude;pressure_sealevel;temperature;humidity
19023;BME280;35226;48.606;8.858;2024-03-23T00:54:35;95609.84;;;7.49;100.00
19023;BME280;35226;48.606;8.858;2024-03-23T00:57:01;95606.44;;;7.57;100.00
19023;BME280;35226;48.606;8.858;2024-03-23T00:59:27;95595.66;;;7.75;100.00
19023;BME280;35226;48.606;8.858;2024-03-23T01:01:54;95587.31;;;7.66;100.00
19023;BME280;35226;48.606;8.858;2024-03-23T01:04:20;95586.22;;;7.51;100.00
19023;BME280;35226;48.606;8.858;2024-03-23T01:06:45;95597.09;;;7.55;100.00
19023;BME280;35226;48.606;8.858;2024-03-23T01:09:11;95587.44;;;7.50;100.00
19023;BME280;35226;48.606;8.858;2024-03-23T01:11:37;95593.25;;;7.65;100.00
19023;BME280;35226;48.606;8.858;2024-03-23T01:14:02;95578.41;;;7.62;100.00
19023;BME280;35226;48.606;8.858;2024-03-23T01:16:28;95590.97;;;7.63;100.00
19023;BME280;35226;48.606;8.858;2024-03-23T01:18:53;95583.69;;;7.69;100.00
19023;BME280;35226;48.606;8.858;2024-03-23T01:21:19;95584.88;;;7.68;100.00
19023;BME280;35226;48.606;8.858;2024-03-23T01:23:44;95582.47;;;7.83;100.00
19023;BME280;35226;48.606;8.858;2024-03-23T01:26:10;95586.84;;;7.80;100.00
19023;BME280;35226;48.606;8.858;2024-03-23T01:28:35;95574.75;;;7.91;100.00
19023;BME280;35226;48.606;8.858;2024-03-23T01:31:02;95572.75;;;7.91;100.00
19023;BME280;35226;48.606;8.858;2024-03-23T01:33:27;95568.03;;;7.92;100.00
19023;BME280;35226;48.606;8.858;2024-03-23T01:35:56;95571.00;;;7.85;100.00
19023;BME280;35226;48.606;8.858;2024-03-23T01:38:21;95566.94;;;7.89;100.00
19023;BME280;35226;48.606;8.858;2024-03-23T01:40:47;95560.75;;;7.85;100.00
19023;BME280;35226;48.606;8.858;2024-03-23T01:43:12;95560.47;;;7.83;100.00
19023;BME280;35226;48.606;8.858;2024-03-23T01:45:38;95544.94;;;7.89;100.00
19023;BME280;35226;48.606;8.858;2024-03-23T01:48:04;95543.97;;;7.83;100.00
19023;BME280;35226;48.606;8.858;2024-03-23T01:50:31;95534.47;;;7.84;100.00
19023;BME280;35226;48.606;8.858;2024-03-23T01:53:02;95527.66;;;7.89;100.00
19023;BME280;35226;48.606;8.858;2024-03-23T01:55:28;95528.69;;;7.82;100.00
19023;BME280;35226;48.606;8.858;2024-03-23T01:57:56;95545.63;;;7.80;100.00
19023;BME280;35226;48.606;8.858;2024-03-23T02:00:21;95525.00;;;7.85;100.00
19023;BME280;35226;48.606;8.858;2024-03-23T02:02:48;95515.88;;;7.88;100.00
19023;BME280;35226;48.606;8.858;2024-03-23T02:05:14;95521.50;;;7.85;100.00
19023;BME280;35226;48.606;8.858;2024-03-23T02:07:41;95517.91;;;7.75;100.00
19023;BME280;35226;48.606;8.858;2024-03-23T02:10:07;95514.84;;;7.73;100.00
19023;BME280;35226;48.606;8.858;2024-03-23T02:12:34;95511.50;;;7.78;100.00
19023;BME280;35226;48.606;8.858;2024-03-23T02:15:00;95505.25;;;7.77;100.00
19023;BME280;35226;48.606;8.858;2024-03-23T02:17:26;95505.81;;;7.72;100.00
19023;BME280;35226;48.606;8.858;2024-03-23T02:19:52;95500.00;;;7.70;100.00
19023;BME280;35226;48.606;8.858;2024-03-23T02:22:17;95493.97;;;7.63;100.00
19023;BME280;35226;48.606;8.858;2024-03-23T02:24:43;95494.75;;;7.63;100.00
19023;BME280;35226;48.606;8.858;2024-03-23T02:27:08;95493.75;;;7.57;100.00
19023;BME280;35226;48.606;8.858;2024-03-23T02:29:34;95487.47;;;7.69;100.00
19023;BME280;35226;48.606;8.858;2024-03-23T02:32:00;95488.66;;;7.68;100.00
19023;BME280;35226;48.606;8.858;2024-03-23T02:34:26;95494.06;;;7.72;100.00
19023;BME280;35226;48.606;8.858;2024-03-23T02:36:52;95497.88;;;7.74;100.00
19023;BME280;35226;48.606;8.858;2024-03-23T02:39:17;95490.72;;;7.77;100.00
19023;BME280;35226;48.606;8.858;2024-03-23T02:41:43;95482.22;;;7.84;100.00
19023;BME280;35226;48.606;8.858;2024-03-23T02:44:08;95478.81;;;7.93;100.00
19023;BME280;35226;48.606;8.858;2024-03-23T02:46:37;95478.59;;;7.87;100.00
19023;BME280;35226;48.606;8.858;2024-03-23T02:49:03;95481.34;;;7.87;100.00
19023;BME280;35226;48.606;8.858;2024-03-23T02:51:30;95467.03;;;7.92;100.00
19023;BME280;35226;48.606;8.858;2024-03-23T02:53:55;95467.16;;;7.89;100.00
19023;BME280;35226;48.606;8.858;2024-03-23T02:56:21;95472.00;;;7.85;100.00
19023;BME280;35226;48.606;8.858;2024-03-23T02:58:47;95468.94;;;7.83;100.00
19023;BME280;35226;48.606;8.858;2024-03-23T03:01:12;95470.94;;;7.82;100.00
19023;BME280;35226;48.606;8.858;2024-03-23T03:03:38;95471.69;;;7.83;100.00
19023;BME280;35226;48.606;8.858;2024-03-23T03:06:04;95472.91;;;7.82;100.00
19023;BME280;35226;48.606;8.858;2024-03-23T03:08:29;95467.19;;;7.76;100.00
19023;BME280;35226;48.606;8.858;2024-03-23T03:10:55;95466.97;;;7.83;100.00
19023;BME280;35226;48.606;8.858;2024-03-23T03:13:23;95458.19;;;7.75;100.00
19023;BME280;35226;48.606;8.858;2024-03-23T03:15:49;95457.63;;;7.80;100.00
19023;BME280;35226;48.606;8.858;2024-03-23T03:18:14;95456.19;;;7.76;100.00
19023;BME280;35226;48.606;8.858;2024-03-23T03:20:40;95456.41;;;7.82;100.00
19023;BME280;35226;48.606;8.858;2024-03-23T03:23:06;95455.88;;;7.74;100.00
19023;BME280;35226;48.606;8.858;2024-03-23T03:25:35;95445.25;;;7.63;100.00
19023;BME280;35226;48.606;8.858;2024-03-23T03:28:01;95441.34;;;7.52;100.00
19023;BME280;35226;48.606;8.858;2024-03-23T03:30:27;95437.91;;;7.60;100.00
19023;BME280;35226;48.606;8.858;2024-03-23T03:32:53;95425.81;;;7.58;100.00
19023;BME280;35226;48.606;8.858;2024-03-23T03:35:19;95432.41;;;7.60;100.00
19023;BME280;35226;48.606;8.858;2024-03-23T03:37:45;95422.38;;;7.66;100.00
19023;BME280;35226;48.606;8.858;2024-03-23T03:40:11;95419.09;;;7.59;100.00
19023;BME280;35226;48.606;8.858;2024-03-23T03:42:37;95417.66;;;7.54;100.00
19023;BME280;35226;48.606;8.858;2024-03-23T03:45:03;95409.75;;;7.56;100.00
19023;BME280;35226;48.606;8.858;2024-03-23T03:47:30;95394.28;;;7.50;100.00
19023;BME280;35226;48.606;8.858;2024-03-23T03:49:55;95395.25;;;7.56;100.00
19023;BME280;35226;48.606;8.858;2024-03-23T03:52:21;95385.38;;;7.46;100.00
19023;BME280;35226;48.606;8.858;2024-03-23T03:54:46;95383.72;;;7.48;100.00
19023;BME280;35226;48.606;8.858;2024-03-23T03:57:12;95374.72;;;7.48;100.00
19023;BME280;35226;48.606;8.858;2024-03-23T03:59:37;95379.25;;;7.41;100.00
19023;BME280;35226;48.606;8.858;2024-03-23T04:02:03;95367.81;;;7.43;100.00
19023;BME280;35226;48.606;8.858;2024-03-23T04:04:28;95365.84;;;7.43;100.00
19023;BME280;35226;48.606;8.858;2024-03-23T04:07:01;95357.78;;;7.49;100.00
19023;BME280;35226;48.606;8.858;2024-03-23T04:09:27;95356.06;;;7.42;100.00
19023;BME280;35226;48.606;8.858;2024-03-23T04:11:55;95350.69;;;7.39;100.00
19023;BME280;35226;48.606;8.858;2024-03-23T04:14:21;95340.47;;;7.39;100.00
19023;BME280;35226;48.606;8.858;2024-03-23T04:16:46;95335.72;;;7.40;100.00
19023;BME280;35226;48.606;8.858;2024-03-23T04:19:12;95334.09;;;7.42;100.00
19023;BME280;35226;48.606;8.858;2024-03-23T04:21:37;95345.06;;;7.42;100.00
19023;BME280;35226;48.606;8.858;2024-03-23T04:24:04;95322.31;;;7.42;100.00
19023;BME280;35226;48.606;8.858;2024-03-23T04:26:29;95320.00;;;7.40;100.00
19023;BME280;35226;48.606;8.858;2024-03-23T04:28:55;95323.78;;;7.34;100.00
19023;BME280;35226;48.606;8.858;2024-03-23T04:31:20;95317.31;;;7.28;100.00
19023;BME280;35226;48.606;8.858;2024-03-23T04:33:47;95313.94;;;7.24;100.00
19023;BME280;35226;48.606;8.858;2024-03-23T04:36:12;95309.22;;;7.24;100.00
19023;BME280;35226;48.606;8.858;2024-03-23T04:38:38;95312.69;;;7.25;100.00
19023;BME280;35226;48.606;8.858;2024-03-23T04:41:03;95337.31;;;7.28;100.00
19023;BME280;35226;48.606;8.858;2024-03-23T04:43:29;95361.34;;;7.37;100.00
19023;BME280;35226;48.606;8.858;2024-03-23T04:45:55;95385.53;;;7.42;100.00
19023;BME280;35226;48.606;8.858;2024-03-23T04:48:21;95402.72;;;7.55;100.00
19023;BME280;35226;48.606;8.858;2024-03-23T04:50:48;95381.13;;;7.66;100.00
19023;BME280;35226;48.606;8.858;2024-03-23T04:53:15;95386.25;;;7.77;100.00
19023;BME280;35226;48.606;8.858;2024-03-23T04:55:42;95386.91;;;7.81;100.00
19023;BME280;35226;48.606;8.858;2024-03-23T04:58:07;95396.59;;;7.95;100.00
19023;BME280;35226;48.606;8.858;2024-03-23T05:00:33;95403.69;;;8.05;100.00
19023;BME280;35226;48.606;8.858;2024-03-23T05:02:59;95411.38;;;8.10;100.00
19023;BME280;35226;48.606;8.858;2024-03-23T05:05:24;95425.00;;;8.13;100.00
19023;BME280;35226;48.606;8.858;2024-03-23T05:07:50;95417.84;;;8.16;100.00
19023;BME280;35226;48.606;8.858;2024-03-23T05:10:15;95421.25;;;8.20;100.00
19023;BME280;35226;48.606;8.858;2024-03-23T05:12:41;95421.56;;;8.22;100.00
19023;BME280;35226;48.606;8.858;2024-03-23T05:15:07;95428.56;;;8.23;100.00
19023;BME280;35226;48.606;8.858;2024-03-23T05:17:33;95428.28;;;8.21;100.00
19023;BME280;35226;48.606;8.858;2024-03-23T05:19:59;95438.63;;;8.17;100.00
19023;BME280;35226;48.606;8.858;2024-03-23T05:22:24;95436.78;;;8.14;100.00
19023;BME280;35226;48.606;8.858;2024-03-23T05:24:50;95447.16;;;8.10;100.00
19023;BME280;35226;48.606;8.858;2024-03-23T05:27:15;95451.13;;;8.09;100.00
19023;BME280;35226;48.606;8.858;2024-03-23T05:29:41;95467.41;;;8.03;100.00
19023;BME280;35226;48.606;8.858;2024-03-23T05:32:07;95474.28;;;7.99;100.00
19023;BME280;35226;48.606;8.858;2024-03-23T05:34:32;95470.88;;;7.95;100.00
19023;BME280;35226;48.606;8.858;2024-03-23T05:36:58;95483.53;;;7.92;100.00
19023;BME280;35226;48.606;8.858;2024-03-23T05:39:23;95484.75;;;7.91;100.00
19023;BME280;35226;48.606;8.858;2024-03-23T05:41:49;95484.09;;;7.87;100.00
19023;BME280;35226;48.606;8.858;2024-03-23T05:44:15;95485.53;;;7.92;100.00
19023;BME280;35226;48.606;8.858;2024-03-23T05:46:41;95488.50;;;7.85;100.00
19023;BME280;35226;48.606;8.858;2024-03-23T05:49:06;95481.47;;;7.84;100.00
19023;BME280;35226;48.606;8.858;2024-03-23T05:51:32;95492.94;;;7.82;100.00
19023;BME280;35226;48.606;8.858;2024-03-23T05:53:58;95503.25;;;7.78;100.00
19023;BME280;35226;48.606;8.858;2024-03-23T05:56:24;95497.88;;;7.74;100.00
19023;BME280;35226;48.606;8.858;2024-03-23T05:58:51;95501.66;;;7.68;100.00
19023;BME280;35226;48.606;8.858;2024-03-23T06:01:16;95507.06;;;7.59;100.00
19023;BME280;35226;48.606;8.858;2024-03-23T06:03:43;95511.59;;;7.53;100.00
19023;BME280;35226;48.606;8.858;2024-03-23T06:06:09;95508.41;;;7.41;100.00
19023;BME280;35226;48.606;8.858;2024-03-23T06:08:37;95515.22;;;7.37;100.00
19023;BME280;35226;48.606;8.858;2024-03-23T06:11:04;95507.41;;;7.35;100.00
19023;BME280;35226;48.606;8.858;2024-03-23T06:13:32;95508.97;;;7.24;100.00
19023;BME280;35226;48.606;8.858;2024-03-23T06:15:57;95523.69;;;7.17;100.00
19023;BME280;35226;48.606;8.858;2024-03-23T06:18:24;95520.41;;;7.10;100.00
19023;BME280;35226;48.606;8.858;2024-03-23T06:20:49;95523.81;;;7.01;100.00
19023;BME280;35226;48.606;8.858;2024-03-23T06:23:15;95531.50;;;6.93;100.00
19023;BME280;35226;48.606;8.858;2024-03-23T06:25:42;95541.47;;;6.87;100.00
19023;BME280;35226;48.606;8.858;2024-03-23T06:28:08;95532.16;;;6.85;100.00
19023;BME280;35226;48.606;8.858;2024-03-23T06:30:34;95561.75;;;6.77;100.00
19023;BME280;35226;48.606;8.858;2024-03-23T06:32:59;95552.88;;;6.73;100.00
19023;BME280;35226;48.606;8.858;2024-03-23T06:35:25;95547.72;;;6.75;100.00
19023;BME280;35226;48.606;8.858;2024-03-23T06:37:50;95562.97;;;6.76;100.00
19023;BME280;35226;48.606;8.858;2024-03-23T06:40:16;95572.97;;;6.70;100.00
19023;BME280;35226;48.606;8.858;2024-03-23T06:42:41;95575.78;;;6.66;100.00
19023;BME280;35226;48.606;8.858;2024-03-23T06:45:07;95585.25;;;6.65;100.00
19023;BME280;35226;48.606;8.858;2024-03-23T06:47:33;95588.53;;;6.60;100.00
19023;BME280;35226;48.606;8.858;2024-03-23T06:50:03;95614.22;;;6.66;100.00
19023;BME280;35226;48.606;8.858;2024-03-23T06:52:29;95606.97;;;6.60;100.00
19023;BME280;35226;48.606;8.858;2024-03-23T06:54:54;95602.69;;;6.59;100.00
19023;BME280;35226;48.606;8.858;2024-03-23T06:57:20;95614.09;;;6.57;100.00
19023;BME280;35226;48.606;8.858;2024-03-23T06:59:46;95616.41;;;6.59;100.00
19023;BME280;35226;48.606;8.858;2024-03-23T07:02:11;95625.81;;;6.58;100.00
19023;BME280;35226;48.606;8.858;2024-03-23T07:04:37;95632.88;;;6.59;100.00
19023;BME280;35226;48.606;8.858;2024-03-23T07:07:05;95639.13;;;6.59;100.00
19023;BME280;35226;48.606;8.858;2024-03-23T07:09:30;95639.56;;;6.58;100.00
19023;BME280;35226;48.606;8.858;2024-03-23T07:11:56;95641.53;;;6.57;100.00
19023;BME280;35226;48.606;8.858;2024-03-23T07:14:23;95648.22;;;6.56;100.00
19023;BME280;35226;48.606;8.858;2024-03-23T07:16:49;95652.00;;;6.62;100.00
19023;BME280;35226;48.606;8.858;2024-03-23T07:19:16;95661.34;;;6.65;100.00
19023;BME280;35226;48.606;8.858;2024-03-23T07:21:45;95676.50;;;6.69;100.00
19023;BME280;35226;48.606;8.858;2024-03-23T07:24:11;95670.66;;;6.67;100.00
19023;BME280;35226;48.606;8.858;2024-03-23T07:26:37;95657.56;;;6.59;100.00
19023;BME280;35226;48.606;8.858;2024-03-23T07:29:04;95668.66;;;6.55;100.00
19023;BME280;35226;48.606;8.858;2024-03-23T07:31:29;95666.69;;;6.56;100.00
19023;BME280;35226;48.606;8.858;2024-03-23T07:33:55;95679.63;;;6.55;100.00
19023;BME280;35226;48.606;8.858;2024-03-23T07:36:20;95680.13;;;6.50;100.00
19023;BME280;35226;48.606;8.858;2024-03-23T07:38:49;95688.13;;;6.45;100.00
19023;BME280;35226;48.606;8.858;2024-03-23T07:41:18;95680.84;;;6.38;100.00
19023;BME280;35226;48.606;8.858;2024-03-23T07:43:45;95689.50;;;6.37;100.00
19023;BME280;35226;48.606;8.858;2024-03-23T07:46:11;95698.06;;;6.39;100.00
19023;BME280;35226;48.606;8.858;2024-03-23T07:48:37;95701.00;;;6.31;100.00
19023;BME280;35226;48.606;8.858;2024-03-23T07:51:08;95724.31;;;6.23;100.00
19023;BME280;35226;48.606;8.858;2024-03-23T07:53:34;95732.78;;;6.29;100.00
19023;BME280;35226;48.606;8.858;2024-03-23T07:56:09;95740.59;;;6.30;100.00
19023;BME280;35226;48.606;8.858;2024-03-23T07:58:36;95747.81;;;6.24;100.00
19023;BME280;35226;48.606;8.858;2024-03-23T08:01:05;95747.03;;;6.24;100.00
19023;BME280;35226;48.606;8.858;2024-03-23T08:03:34;95739.47;;;6.28;100.00
19023;BME280;35226;48.606;8.858;2024-03-23T08:06:14;95735.13;;;6.30;100.00
19023;BME280;35226;48.606;8.858;2024-03-23T08:08:41;95760.66;;;6.27;100.00
19023;BME280;35226;48.606;8.858;2024-03-23T08:11:11;95778.34;;;6.26;100.00
19023;BME280;35226;48.606;8.858;2024-03-23T08:13:38;95787.06;;;6.21;100.00
19023;BME280;35226;48.606;8.858;2024-03-23T08:16:04;95790.31;;;6.16;100.00
19023;BME280;35226;48.606;8.858;2024-03-23T08:18:33;95784.22;;;6.09;100.00
19023;BME280;35226;48.606;8.858;2024-03-23T08:21:02;95800.66;;;6.09;100.00
19023;BME280;35226;48.606;8.858;2024-03-23T08:23:30;95800.59;;;6.12;100.00
19023;BME280;35226;48.606;8.858;2024-03-23T08:26:03;95807.56;;;6.17;100.00
19023;BME280;35226;48.606;8.858;2024-03-23T08:28:29;95810.97;;;6.21;100.00
19023;BME280;35226;48.606;8.858;2024-03-23T08:30:55;95813.72;;;6.21;100.00
19023;BME280;35226;48.606;8.858;2024-03-23T08:33:22;95810.56;;;6.22;100.00
19023;BME280;35226;48.606;8.858;2024-03-23T08:35:57;95812.28;;;6.16;100.00
19023;BME280;35226;48.606;8.858;2024-03-23T08:38:28;95827.19;;;6.15;100.00
19023;BME280;35226;48.606;8.858;2024-03-23T08:41:01;95819.28;;;6.17;100.00
19023;BME280;35226;48.606;8.858;2024-03-23T08:43:28;95819.44;;;6.10;100.00
19023;BME280;35226;48.606;8.858;2024-03-23T08:46:03;95819.28;;;6.17;100.00
19023;BME280;35226;48.606;8.858;2024-03-23T08:48:29;95827.50;;;6.17;100.00
19023;BME280;35226;48.606;8.858;2024-03-23T08:51:01;95829.81;;;6.19;100.00
19023;BME280;35226;48.606;8.858;2024-03-23T08:53:28;95843.22;;;6.33;100.00
19023;BME280;35226;48.606;8.858;2024-03-23T08:55:55;95857.31;;;6.35;100.00
19023;BME280;35226;48.606;8.858;2024-03-23T08:58:23;95861.50;;;6.40;100.00
19023;BME280;35226;48.606;8.858;2024-03-23T09:00:49;95853.06;;;6.30;100.00
19023;BME280;35226;48.606;8.858;2024-03-23T09:03:15;95868.50;;;6.24;100.00
19023;BME280;35226;48.606;8.858;2024-03-23T09:05:42;95893.97;;;6.25;100.00
19023;BME280;35226;48.606;8.858;2024-03-23T09:08:07;95896.44;;;6.19;100.00
19023;BME280;35226;48.606;8.858;2024-03-23T09:10:40;95902.66;;;6.40;100.00
19023;BME280;35226;48.606;8.858;2024-03-23T09:13:06;95895.25;;;6.37;100.00
19023;BME280;35226;48.606;8.858;2024-03-23T09:15:36;95900.69;;;6.40;100.00
19023;BME280;35226;48.606;8.858;2024-03-23T09:18:02;95885.44;;;6.55;100.00
19023;BME280;35226;48.606;8.858;2024-03-23T09:20:28;95893.06;;;6.48;100.00
19023;BME280;35226;48.606;8.858;2024-03-23T09:22:53;95896.75;;;6.41;100.00
19023;BME280;35226;48.606;8.858;2024-03-23T09:25:19;95916.19;;;6.47;100.00
19023;BME280;35226;48.606;8.858;2024-03-23T09:27:47;95911.66;;;6.40;100.00
19023;BME280;35226;48.606;8.858;2024-03-23T09:30:13;95923.44;;;6.21;100.00
19023;BME280;35226;48.606;8.858;2024-03-23T09:32:44;95930.38;;;5.86;100.00
19023;BME280;35226;48.606;8.858;2024-03-23T09:35:10;95935.28;;;5.55;100.00
19023;BME280;35226;48.606;8.858;2024-03-23T09:37:36;95934.13;;;5.52;100.00
19023;BME280;35226;48.606;8.858;2024-03-23T09:40:02;95919.66;;;5.52;100.00
19023;BME280;35226;48.606;8.858;2024-03-23T09:42:28;95914.59;;;5.50;100.00
19023;BME280;35226;48.606;8.858;2024-03-23T09:44:57;95925.94;;;5.52;100.00
19023;BME280;35226;48.606;8.858;2024-03-23T09:47:24;95924.59;;;5.61;100.00
19023;BME280;35226;48.606;8.858;2024-03-23T09:49:50;95925.94;;;5.72;100.00
19023;BME280;35226;48.606;8.858;2024-03-23T09:52:15;95932.06;;;5.80;100.00
19023;BME280;35226;48.606;8.858;2024-03-23T09:54:41;95923.06;;;5.79;100.00
19023;BME280;35226;48.606;8.858;2024-03-23T09:57:06;95921.19;;;5.76;100.00
19023;BME280;35226;48.606;8.858;2024-03-23T09:59:35;95910.22;;;5.76;100.00
19023;BME280;35226;48.606;8.858;2024-03-23T10:02:01;95910.16;;;6.00;100.00
19023;BME280;35226;48.606;8.858;2024-03-23T10:04:41;95898.09;;;6.33;100.00
19023;BME280;35226;48.606;8.858;2024-03-23T10:07:14;95900.19;;;6.61;100.00
19023;BME280;35226;48.606;8.858;2024-03-23T10:09:40;95890.28;;;6.84;100.00
19023;BME280;35226;48.606;8.858;2024-03-23T10:12:16;95886.47;;;7.10;100.00
19023;BME280;35226;48.606;8.858;2024-03-23T10:14:43;95881.03;;;7.39;100.00
19023;BME280;35226;48.606;8.858;2024-03-23T10:19:42;95874.25;;;7.72;100.00
19023;BME280;35226;48.606;8.858;2024-03-23T10:22:17;95869.53;;;7.86;100.00
19023;BME280;35226;48.606;8.858;2024-03-23T10:24:43;95864.03;;;7.73;100.00
19023;BME280;35226;48.606;8.858;2024-03-23T10:27:09;95859.19;;;7.77;100.00
19023;BME280;35226;48.606;8.858;2024-03-23T10:29:34;95865.66;;;7.70;100.00
19023;BME280;35226;48.606;8.858;2024-03-23T10:32:11;95866.81;;;7.57;100.00
19023;BME280;35226;48.606;8.858;2024-03-23T10:34:37;95884.78;;;7.45;100.00
19023;BME280;35226;48.606;8.858;2024-03-23T10:37:04;95920.47;;;6.84;100.00
19023;BME280;35226;48.606;8.858;2024-03-23T10:39:34;95967.38;;;3.93;100.00
19023;BME280;35226;48.606;8.858;2024-03-23T10:42:05;95979.75;;;4.35;100.00
19023;BME280;35226;48.606;8.858;2024-03-23T10:44:32;95971.25;;;4.30;100.00
19023;BME280;35226;48.606;8.858;2024-03-23T10:47:01;95976.84;;;4.19;100.00
19023;BME280;35226;48.606;8.858;2024-03-23T10:49:32;96000.31;;;4.17;100.00
19023;BME280;35226;48.606;8.858;2024-03-23T10:51:59;96018.53;;;4.27;100.00
19023;BME280;35226;48.606;8.858;2024-03-23T10:54:25;96017.25;;;4.38;100.00
19023;BME280;35226;48.606;8.858;2024-03-23T10:56:57;96015.91;;;4.20;100.00
19023;BME280;35226;48.606;8.858;2024-03-23T10:59:25;96012.38;;;4.80;100.00
19023;BME280;35226;48.606;8.858;2024-03-23T11:01:59;95994.47;;;4.75;100.00
19023;BME280;35226;48.606;8.858;2024-03-23T11:04:36;95986.56;;;4.81;100.00
19023;BME280;35226;48.606;8.858;2024-03-23T11:09:49;96001.22;;;4.94;100.00
19023;BME280;35226;48.606;8.858;2024-03-23T11:15:11;95978.78;;;5.73;100.00
19023;BME280;35226;48.606;8.858;2024-03-23T11:17:37;95962.97;;;5.80;100.00
19023;BME280;35226;48.606;8.858;2024-03-23T11:20:03;95943.53;;;5.75;100.00
19023;BME280;35226;48.606;8.858;2024-03-23T11:22:47;95935.63;;;5.57;100.00
19023;BME280;35226;48.606;8.858;2024-03-23T11:25:22;95925.97;;;5.49;100.00
19023;BME280;35226;48.606;8.858;2024-03-23T11:27:53;95929.19;;;5.67;100.00
19023;BME280;35226;48.606;8.858;2024-03-23T11:32:54;95936.59;;;5.90;100.00
19023;BME280;35226;48.606;8.858;2024-03-23T11:35:30;95942.59;;;5.81;100.00
19023;BME280;35226;48.606;8.858;2024-03-23T11:38:12;95940.16;;;5.67;100.00
19023;BME280;35226;48.606;8.858;2024-03-23T11:40:43;95940.00;;;5.74;100.00
19023;BME280;35226;48.606;8.858;2024-03-23T11:43:14;95926.09;;;5.85;100.00
19023;BME280;35226;48.606;8.858;2024-03-23T11:45:43;95934.06;;;5.99;100.00
19023;BME280;35226;48.606;8.858;2024-03-23T11:50:40;95925.50;;;6.69;100.00
19023;BME280;35226;48.606;8.858;2024-03-23T11:55:41;95912.69;;;7.60;100.00
19023;BME280;35226;48.606;8.858;2024-03-23T11:58:06;95907.69;;;7.84;100.00
19023;BME280;35226;48.606;8.858;2024-03-23T12:00:34;95898.72;;;7.96;100.00
19023;BME280;35226;48.606;8.858;2024-03-23T12:03:01;95904.78;;;8.03;100.00
19023;BME280;35226;48.606;8.858;2024-03-23T12:05:27;95899.66;;;7.76;100.00
19023;BME280;35226;48.606;8.858;2024-03-23T12:07:52;95902.13;;;7.87;100.00
19023;BME280;35226;48.606;8.858;2024-03-23T12:10:19;95906.34;;;7.63;100.00
19023;BME280;35226;48.606;8.858;2024-03-23T12:12:45;95902.69;;;7.95;100.00
19023;BME280;35226;48.606;8.858;2024-03-23T12:15:10;95897.56;;;8.09;100.00
19023;BME280;35226;48.606;8.858;2024-03-23T12:17:38;95906.47;;;8.55;100.00
19023;BME280;35226;48.606;8.858;2024-03-23T12:20:04;95902.28;;;8.63;100.00
19023;BME280;35226;48.606;8.858;2024-03-23T12:22:30;95904.13;;;9.04;100.00
19023;BME280;35226;48.606;8.858;2024-03-23T12:24:56;95902.47;;;9.07;100.00
19023;BME280;35226;48.606;8.858;2024-03-23T12:27:22;95891.03;;;8.83;100.00
19023;BME280;35226;48.606;8.858;2024-03-23T12:29:48;95892.31;;;9.16;100.00
19023;BME280;35226;48.606;8.858;2024-03-23T12:32:14;95896.34;;;9.50;100.00
19023;BME280;35226;48.606;8.858;2024-03-23T12:34:43;95904.50;;;9.41;100.00
19023;BME280;35226;48.606;8.858;2024-03-23T12:37:08;95904.47;;;9.53;100.00
19023;BME280;35226;48.606;8.858;2024-03-23T12:39:37;95907.88;;;9.10;100.00
19023;BME280;35226;48.606;8.858;2024-03-23T12:42:03;95904.38;;;8.72;100.00
19023;BME280;35226;48.606;8.858;2024-03-23T12:44:29;95904.25;;;8.75;100.00
19023;BME280;35226;48.606;8.858;2024-03-23T12:46:55;95912.97;;;8.48;100.00
19023;BME280;35226;48.606;8.858;2024-03-23T12:49:20;95904.91;;;8.54;100.00
19023;BME280;35226;48.606;8.858;2024-03-23T12:51:56;95896.19;;;8.30;100.00
19023;BME280;35226;48.606;8.858;2024-03-23T12:54:22;95895.06;;;8.28;100.00
19023;BME280;35226;48.606;8.858;2024-03-23T12:56:48;95927.25;;;8.02;100.00
19023;BME280;35226;48.606;8.858;2024-03-23T12:59:14;95963.34;;;6.78;100.00
19023;BME280;35226;48.606;8.858;2024-03-23T13:01:39;95955.56;;;6.01;100.00
19023;BME280;35226;48.606;8.858;2024-03-23T13:04:05;95951.34;;;5.30;100.00
19023;BME280;35226;48.606;8.858;2024-03-23T13:06:31;95933.50;;;5.21;100.00
19023;BME280;35226;48.606;8.858;2024-03-23T13:09:01;95932.31;;;5.22;100.00
19023;BME280;35226;48.606;8.858;2024-03-23T13:11:27;95925.88;;;5.76;100.00
19023;BME280;35226;48.606;8.858;2024-03-23T13:13:53;95907.81;;;6.18;100.00
19023;BME280;35226;48.606;8.858;2024-03-23T13:16:18;95911.88;;;6.82;100.00
19023;BME280;35226;48.606;8.858;2024-03-23T13:18:44;95894.22;;;6.99;100.00
19023;BME280;35226;48.606;8.858;2024-03-23T13:21:09;95898.56;;;7.29;100.00
19023;BME280;35226;48.606;8.858;2024-03-23T13:23:35;95882.16;;;7.70;100.00
19023;BME280;35226;48.606;8.858;2024-03-23T13:26:01;95871.56;;;7.98;100.00
19023;BME280;35226;48.606;8.858;2024-03-23T13:28:27;95865.91;;;8.30;100.00
19023;BME280;35226;48.606;8.858;2024-03-23T13:30:54;95853.22;;;8.20;100.00
19023;BME280;35226;48.606;8.858;2024-03-23T13:33:20;95852.94;;;8.69;100.00
19023;BME280;35226;48.606;8.858;2024-03-23T13:35:53;95857.25;;;8.70;100.00
19023;BME280;35226;48.606;8.858;2024-03-23T13:38:20;95855.41;;;9.01;100.00
19023;BME280;35226;48.606;8.858;2024-03-23T13:41:12;95860.63;;;10.33;100.00
19023;BME280;35226;48.606;8.858;2024-03-23T13:43:37;95846.97;;;9.86;100.00
19023;BME280;35226;48.606;8.858;2024-03-23T13:46:03;95856.50;;;10.78;100.00
19023;BME280;35226;48.606;8.858;2024-03-23T13:48:32;95846.09;;;10.42;100.00
19023;BME280;35226;48.606;8.858;2024-03-23T13:51:04;95842.19;;;10.30;100.00
19023;BME280;35226;48.606;8.858;2024-03-23T13:53:31;95849.47;;;9.50;100.00
19023;BME280;35226;48.606;8.858;2024-03-23T13:55:58;95857.88;;;8.86;100.00
19023;BME280;35226;48.606;8.858;2024-03-23T13:58:26;95870.44;;;8.75;100.00
19023;BME280;35226;48.606;8.858;2024-03-23T14:00:52;95866.28;;;8.32;100.00
19023;BME280;35226;48.606;8.858;2024-03-23T14:03:18;95864.59;;;7.80;100.00
19023;BME280;35226;48.606;8.858;2024-03-23T14:05:44;95849.34;;;7.92;100.00
19023;BME280;35226;48.606;8.858;2024-03-23T14:08:10;95855.16;;;7.94;100.00